Time;durP1;ratioP1;P1;durP2;ratioP2;P2;SDS_P1;SDS_P2;PMS_P1;PMS_P2;Temp;Humidity;BMP_temperature;BMP_pressure;BME280_temperature;BME280_humidity;BME280_pressure;Samples;Min_cycle;Max_cycle;Signal;HPM_P1;HPM_P2
2023/03/09 00:01:55;;;;;;;;;;;;;;;18.41;34.11;93576.00;10466764;28;2052;-48
2023/03/09 00:07:05;;;;;;;;;;;;;;;18.39;34.21;93583.41;10465147;28;2028;-51
2023/03/09 00:12:06;;;;;;;;;;;;;;;18.36;34.12;93573.53;10449656;28;2114;-52
2023/03/09 00:17:08;;;;;;;;;;;;;;;18.33;34.09;93584.66;10476996;28;2097;-50
2023/03/09 00:22:11;;;;;;;;;;;;;;;18.33;34.08;93578.63;10468384;28;2117;-52
2023/03/09 00:27:11;;;;;;;;;;;;;;;18.31;34.00;93578.19;10473969;28;2045;-52
2023/03/09 00:32:12;;;;;;;;;;;;;;;18.30;33.94;93574.03;10470731;28;2057;-51
2023/03/09 00:37:14;;;;;;;;;;;;;;;18.25;33.98;93553.97;10469854;28;2010;-51
2023/03/09 00:42:15;;;;;;;;;;;;;;;18.24;33.87;93552.41;10460834;28;2044;-50
2023/03/09 00:47:15;;;;;;;;;;;;;;;18.22;33.88;93549.34;10463126;28;2049;-52
2023/03/09 00:52:17;;;;;;;;;;;;;;;18.20;33.76;93554.13;10446015;28;2080;-49
2023/03/09 00:57:17;;;;;;;;;;;;;;;18.16;33.78;93542.72;10469786;28;2131;-51
2023/03/09 01:02:19;;;;;;;;;;;;;;;18.16;33.67;93545.34;10468811;28;2000;-51
2023/03/09 01:07:19;;;;;;;;;;;;;;;18.15;33.70;93525.47;10451728;28;2354;-50
2023/03/09 01:12:19;;;;;;;;;;;;;;;18.13;33.70;93535.47;10451375;28;2063;-54
2023/03/09 01:17:19;;;;;;;;;;;;;;;18.11;33.64;93506.19;10474473;28;2044;-53
2023/03/09 01:22:24;;;;;;;;;;;;;;;18.09;33.63;93504.94;10475697;28;2062;-49
2023/03/09 01:27:24;;;;;;;;;;;;;;;18.09;33.62;93503.09;10487250;28;2093;-50
2023/03/09 01:32:25;;;;;;;;;;;;;;;18.08;33.59;93511.25;10469477;28;2386;-50
2023/03/09 01:37:25;;;;;;;;;;;;;;;18.05;33.67;93523.16;10469540;28;2131;-52
2023/03/09 01:42:26;;;;;;;;;;;;;;;18.05;33.60;93527.63;10476050;28;2040;-49
2023/03/09 01:47:26;;;;;;;;;;;;;;;18.04;33.58;93528.69;10468289;28;2020;-53
2023/03/09 01:52:28;;;;;;;;;;;;;;;18.02;33.57;93543.97;10480766;28;2076;-51
2023/03/09 01:57:30;;;;;;;;;;;;;;;17.98;33.50;93499.25;10489525;28;2020;-51
2023/03/09 02:02:31;;;;;;;;;;;;;;;17.98;33.61;93504.50;10495555;28;2018;-51
2023/03/09 02:07:34;;;;;;;;;;;;;;;17.97;33.42;93481.97;10465603;28;2066;-52
2023/03/09 02:12:35;;;;;;;;;;;;;;;17.98;33.23;93482.75;10463914;28;2017;-49
2023/03/09 02:17:45;;;;;;;;;;;;;;;17.97;33.22;93496.94;10454325;28;2001;-48
2023/03/09 02:22:46;;;;;;;;;;;;;;;17.94;33.21;93502.81;10460275;28;2075;-52
2023/03/09 02:27:46;;;;;;;;;;;;;;;17.93;33.45;93511.75;10475894;28;2032;-53
2023/03/09 02:32:47;;;;;;;;;;;;;;;17.92;33.32;93549.53;10457645;28;2095;-53
2023/03/09 02:37:47;;;;;;;;;;;;;;;17.93;33.18;93559.69;10473053;28;2010;-50
2023/03/09 02:42:48;;;;;;;;;;;;;;;17.88;33.21;93602.56;10468526;28;2066;-52
2023/03/09 02:47:48;;;;;;;;;;;;;;;17.86;33.26;93617.84;10475474;28;2039;-50
2023/03/09 02:52:48;;;;;;;;;;;;;;;17.89;33.00;93643.41;10472943;28;2035;-53
2023/03/09 02:57:51;;;;;;;;;;;;;;;17.87;33.22;93652.66;10466972;28;2359;-51
2023/03/09 03:02:51;;;;;;;;;;;;;;;17.86;33.11;93628.31;10469246;28;2171;-51
2023/03/09 03:07:52;;;;;;;;;;;;;;;17.87;32.91;93636.94;10452874;28;2073;-50
2023/03/09 03:12:53;;;;;;;;;;;;;;;17.85;32.95;93620.75;10474203;28;2153;-51
2023/03/09 03:17:58;;;;;;;;;;;;;;;17.82;33.06;93627.38;10464047;28;2017;-52
2023/03/09 03:22:59;;;;;;;;;;;;;;;17.79;33.09;93601.78;10472683;28;2119;-52
2023/03/09 03:27:59;;;;;;;;;;;;;;;17.79;33.13;93614.88;10476390;28;1993;-53
2023/03/09 03:33:01;;;;;;;;;;;;;;;17.79;33.00;93612.25;10469482;28;2089;-52
2023/03/09 03:38:02;;;;;;;;;;;;;;;17.78;33.06;93604.72;10475709;28;2016;-50
2023/03/09 03:43:02;;;;;;;;;;;;;;;17.75;33.00;93611.34;10470194;28;2041;-52
2023/03/09 03:48:03;;;;;;;;;;;;;;;17.76;33.16;93607.63;10478521;28;2117;-52
2023/03/09 03:53:04;;;;;;;;;;;;;;;17.74;32.95;93586.19;10468583;28;2070;-51
2023/03/09 03:58:04;;;;;;;;;;;;;;;17.74;32.96;93593.31;10477390;28;2072;-50
2023/03/09 04:03:06;;;;;;;;;;;;;;;17.73;33.06;93612.72;10473796;28;2006;-50
2023/03/09 04:08:06;;;;;;;;;;;;;;;17.72;32.91;93582.38;10471481;28;2310;-49
2023/03/09 04:13:07;;;;;;;;;;;;;;;17.72;32.89;93572.63;10481152;28;2056;-51
2023/03/09 04:18:07;;;;;;;;;;;;;;;17.70;32.96;93566.94;10464382;28;2038;-50
2023/03/09 04:23:09;;;;;;;;;;;;;;;17.68;32.99;93600.53;10467665;28;2051;-51
2023/03/09 04:28:09;;;;;;;;;;;;;;;17.70;33.02;93603.59;10472658;28;2004;-48
2023/03/09 04:33:10;;;;;;;;;;;;;;;17.67;33.07;93598.22;10468858;28;2082;-53
2023/03/09 04:38:10;;;;;;;;;;;;;;;17.66;32.93;93605.28;10478135;28;2074;-49
2023/03/09 04:43:10;;;;;;;;;;;;;;;17.66;32.99;93623.63;10473240;28;2052;-50
2023/03/09 04:48:11;;;;;;;;;;;;;;;17.64;33.02;93617.94;10479005;28;2035;-51
2023/03/09 04:53:12;;;;;;;;;;;;;;;17.63;32.99;93629.50;10474952;28;2146;-51
2023/03/09 04:58:12;;;;;;;;;;;;;;;17.65;32.76;93637.06;10466689;28;2084;-52
2023/03/09 05:03:13;;;;;;;;;;;;;;;17.63;32.94;93639.97;10469950;28;2016;-51
2023/03/09 05:08:13;;;;;;;;;;;;;;;17.62;32.95;93658.63;10464607;28;2002;-48
2023/03/09 05:13:15;;;;;;;;;;;;;;;17.66;32.94;93664.81;10473781;28;2057;-47
2023/03/09 05:18:15;;;;;;;;;;;;;;;17.73;32.99;93659.88;10470290;28;2202;-51
2023/03/09 05:23:16;;;;;;;;;;;;;;;17.78;32.69;93678.84;10471987;28;2122;-48
2023/03/09 05:28:26;;;;;;;;;;;;;;;17.92;32.73;93702.31;10473999;28;2095;-51
2023/03/09 05:33:26;;;;;;;;;;;;;;;18.00;32.66;93706.81;10470755;28;1977;-51
2023/03/09 05:38:26;;;;;;;;;;;;;;;18.11;32.56;93726.41;10477537;28;2047;-52
2023/03/09 05:43:27;;;;;;;;;;;;;;;18.17;32.53;93753.25;10469638;28;2079;-52
2023/03/09 05:48:28;;;;;;;;;;;;;;;18.24;32.43;93764.84;10470266;28;2148;-50
2023/03/09 05:53:29;;;;;;;;;;;;;;;18.32;32.36;93790.31;10465859;28;2041;-51
2023/03/09 05:58:29;;;;;;;;;;;;;;;18.37;32.32;93797.25;10464917;28;2028;-53
2023/03/09 06:03:29;;;;;;;;;;;;;;;18.41;32.33;93819.19;10472719;28;2068;-53
2023/03/09 06:08:29;;;;;;;;;;;;;;;18.45;32.25;93828.78;10464418;28;2079;-51
2023/03/09 06:13:30;;;;;;;;;;;;;;;18.47;32.18;93847.63;10469187;28;2066;-51
2023/03/09 06:18:30;;;;;;;;;;;;;;;18.50;32.16;93846.25;10471714;28;2343;-49
2023/03/09 06:23:31;;;;;;;;;;;;;;;18.53;32.24;93872.63;10460033;28;2137;-48
2023/03/09 06:28:32;;;;;;;;;;;;;;;18.54;32.27;93892.56;10454409;28;2044;-52
2023/03/09 06:33:33;;;;;;;;;;;;;;;18.56;32.27;93908.78;10465153;28;2082;-53
2023/03/09 06:38:33;;;;;;;;;;;;;;;18.57;32.36;93922.66;10469511;28;2009;-51
2023/03/09 06:43:33;;;;;;;;;;;;;;;18.63;32.31;93934.53;10479834;28;1989;-52
2023/03/09 06:48:43;;;;;;;;;;;;;;;18.68;32.22;93963.28;10464706;28;2024;-51
2023/03/09 06:53:44;;;;;;;;;;;;;;;18.72;32.15;93993.09;10466241;28;2006;-47
2023/03/09 06:58:45;;;;;;;;;;;;;;;18.77;32.35;94008.72;10472866;28;2345;-51
2023/03/09 07:03:45;;;;;;;;;;;;;;;18.85;32.58;94020.31;10471267;28;2036;-52
2023/03/09 07:08:46;;;;;;;;;;;;;;;18.91;32.86;94034.84;10465247;28;2037;-51
2023/03/09 07:13:47;;;;;;;;;;;;;;;18.95;32.74;94047.09;10468852;28;2101;-52
2023/03/09 07:18:48;;;;;;;;;;;;;;;18.99;32.90;94058.53;10461023;28;2012;-50
2023/03/09 07:23:49;;;;;;;;;;;;;;;18.98;32.66;94061.47;10472926;28;2079;-49
2023/03/09 07:28:50;;;;;;;;;;;;;;;18.99;32.84;94061.16;10442339;28;2069;-50
2023/03/09 07:33:51;;;;;;;;;;;;;;;19.03;32.75;94069.97;10473997;28;2064;-52
2023/03/09 07:38:51;;;;;;;;;;;;;;;19.04;32.59;94087.25;10474828;28;1965;-50
2023/03/09 07:43:52;;;;;;;;;;;;;;;19.06;32.87;94100.84;10467887;28;2184;-51
2023/03/09 07:48:54;;;;;;;;;;;;;;;19.08;33.04;94109.22;10470355;28;2025;-52
2023/03/09 07:53:55;;;;;;;;;;;;;;;19.11;33.00;94113.09;10469090;28;2008;-48
2023/03/09 07:58:55;;;;;;;;;;;;;;;19.14;32.90;94123.78;10468449;28;2526;-49
2023/03/09 08:03:55;;;;;;;;;;;;;;;19.17;32.87;94144.19;10445539;28;2284;-51
2023/03/09 08:08:55;;;;;;;;;;;;;;;19.17;33.16;94148.66;10462086;28;2039;-50
2023/03/09 08:13:56;;;;;;;;;;;;;;;19.18;33.25;94165.97;10468531;28;2100;-53
2023/03/09 08:18:59;;;;;;;;;;;;;;;19.19;33.23;94176.16;10465261;28;2120;-50
2023/03/09 08:24:00;;;;;;;;;;;;;;;19.17;33.50;94180.16;10476636;28;2149;-52
2023/03/09 08:29:01;;;;;;;;;;;;;;;19.15;33.69;94180.47;10470991;28;2316;-53
2023/03/09 08:34:02;;;;;;;;;;;;;;;19.12;33.87;94203.94;10472680;28;2249;-49
2023/03/09 08:39:03;;;;;;;;;;;;;;;19.08;33.98;94203.75;10470438;28;1973;-52
2023/03/09 08:44:04;;;;;;;;;;;;;;;19.05;34.44;94220.13;10479473;28;2545;-48
2023/03/09 08:49:04;;;;;;;;;;;;;;;19.03;34.57;94227.53;10476536;28;2288;-49
2023/03/09 08:54:05;;;;;;;;;;;;;;;18.99;34.71;94223.16;10481831;28;2038;-51
2023/03/09 08:59:15;;;;;;;;;;;;;;;18.97;35.23;94231.34;10469327;28;1967;-52
2023/03/09 09:04:15;;;;;;;;;;;;;;;18.97;35.24;94233.97;10477789;28;2281;-49
2023/03/09 09:09:16;;;;;;;;;;;;;;;18.93;35.22;94230.41;10468919;28;2348;-52
2023/03/09 09:14:17;;;;;;;;;;;;;;;18.91;35.45;94222.06;10479275;28;2255;-51
2023/03/09 09:19:17;;;;;;;;;;;;;;;18.89;35.56;94247.03;10467485;28;2290;-48
2023/03/09 09:24:18;;;;;;;;;;;;;;;18.87;35.37;94236.06;10468965;28;2338;-47
2023/03/09 09:29:19;;;;;;;;;;;;;;;18.84;35.30;94250.56;10490831;28;2390;-49
2023/03/09 09:34:21;;;;;;;;;;;;;;;18.81;35.33;94263.50;10469860;28;2311;-52
2023/03/09 09:39:23;;;;;;;;;;;;;;;18.77;35.31;94284.34;10455753;28;2292;-53
2023/03/09 09:44:24;;;;;;;;;;;;;;;18.74;35.14;94284.13;10466948;28;2311;-52
2023/03/09 09:49:26;;;;;;;;;;;;;;;18.71;35.31;94280.28;10452952;28;2388;-48
2023/03/09 09:54:37;;;;;;;;;;;;;;;18.69;35.57;94271.94;10439410;28;2302;-52
2023/03/09 09:59:37;;;;;;;;;;;;;;;18.70;35.70;94278.72;10463515;28;1988;-51
2023/03/09 10:04:49;;;;;;;;;;;;;;;18.67;35.95;94284.53;10460650;28;1972;-48
2023/03/09 10:09:54;;;;;;;;;;;;;;;18.65;35.92;94289.31;10448337;28;2430;-47
2023/03/09 10:14:54;;;;;;;;;;;;;;;18.61;35.98;94291.75;10463376;28;2000;-53
2023/03/09 10:19:54;;;;;;;;;;;;;;;18.58;35.76;94300.25;10468363;28;2323;-50
2023/03/09 10:24:55;;;;;;;;;;;;;;;18.56;35.97;94293.72;10492938;28;2323;-53
2023/03/09 10:30:14;;;;;;;;;;;;;;;18.56;36.00;94304.22;10465863;28;2327;-51
2023/03/09 10:35:34;;;;;;;;;;;;;;;18.54;35.68;94309.78;10468701;28;2036;-51
2023/03/09 10:40:37;;;;;;;;;;;;;;;18.50;35.92;94308.81;10471200;28;2600;-49
2023/03/09 10:45:37;;;;;;;;;;;;;;;18.50;35.72;94297.53;10455620;28;2314;-49
2023/03/09 10:50:42;;;;;;;;;;;;;;;18.47;35.91;94312.00;10471203;28;2346;-49
2023/03/09 10:55:43;;;;;;;;;;;;;;;18.45;35.91;94316.00;10448729;28;2315;-49
2023/03/09 11:00:55;;;;;;;;;;;;;;;18.44;35.92;94307.34;10449440;28;2280;-51
2023/03/09 11:06:07;;;;;;;;;;;;;;;18.43;35.87;94325.97;10474863;28;2363;-51
2023/03/09 11:11:26;;;;;;;;;;;;;;;18.41;35.89;94315.78;10472603;28;1993;-51
2023/03/09 11:16:27;;;;;;;;;;;;;;;18.40;35.89;94301.09;10471591;28;2351;-52
2023/03/09 11:21:28;;;;;;;;;;;;;;;18.41;36.01;94302.66;10475445;28;2286;-53
2023/03/09 11:26:31;;;;;;;;;;;;;;;18.42;36.23;94321.81;10453592;28;2206;-52
2023/03/09 11:31:38;;;;;;;;;;;;;;;18.41;36.21;94338.59;10441960;28;2260;-51
2023/03/09 11:36:40;;;;;;;;;;;;;;;18.42;36.79;94332.31;10467967;28;2484;-50
2023/03/09 11:41:40;;;;;;;;;;;;;;;18.41;37.09;94312.38;10473538;28;2424;-52
2023/03/09 11:46:41;;;;;;;;;;;;;;;18.42;37.23;94311.31;10478316;28;2314;-51
2023/03/09 11:51:43;;;;;;;;;;;;;;;18.43;37.30;94320.72;10447496;28;2272;-52
2023/03/09 11:56:44;;;;;;;;;;;;;;;18.44;37.25;94317.06;10443790;28;2214;-51
2023/03/09 12:01:48;;;;;;;;;;;;;;;18.44;37.30;94309.97;10463138;28;2375;-51
2023/03/09 12:07:05;;;;;;;;;;;;;;;18.45;37.33;94300.25;10469286;28;2333;-49
2023/03/09 12:12:17;;;;;;;;;;;;;;;18.46;37.28;94291.31;10488743;28;1943;-53
2023/03/09 12:17:18;;;;;;;;;;;;;;;18.45;37.20;94284.50;10452437;28;2328;-53
2023/03/09 12:22:39;;;;;;;;;;;;;;;18.46;37.13;94296.56;10481881;28;2479;-52
2023/03/09 12:27:41;;;;;;;;;;;;;;;18.48;37.02;94270.81;10476397;28;2501;-50
2023/03/09 12:32:43;;;;;;;;;;;;;;;18.48;36.97;94274.22;10453459;28;2766;-54
2023/03/09 12:37:46;;;;;;;;;;;;;;;18.49;36.97;94267.09;10462975;28;2303;-49
2023/03/09 12:42:47;;;;;;;;;;;;;;;18.52;37.00;94251.56;10474019;28;2315;-50
2023/03/09 12:47:48;;;;;;;;;;;;;;;18.52;36.99;94256.81;10478668;28;2282;-50
2023/03/09 12:52:57;;;;;;;;;;;;;;;18.51;37.19;94254.47;10455268;28;1956;-50
2023/03/09 12:58:16;;;;;;;;;;;;;;;18.53;36.97;94263.59;10468371;28;2320;-50
2023/03/09 13:03:17;;;;;;;;;;;;;;;18.53;36.99;94257.56;10471130;28;2279;-51
2023/03/09 13:08:26;;;;;;;;;;;;;;;18.52;36.79;94263.91;10460811;28;2308;-52
2023/03/09 13:13:34;;;;;;;;;;;;;;;18.50;36.80;94273.91;10458282;28;2231;-50
2023/03/09 13:18:35;;;;;;;;;;;;;;;18.50;36.84;94264.19;10477306;28;2326;-52
2023/03/09 13:23:35;;;;;;;;;;;;;;;18.52;36.76;94274.41;10474338;28;2318;-54
2023/03/09 13:28:39;;;;;;;;;;;;;;;18.49;36.59;94262.63;10465279;28;2417;-53
2023/03/09 13:33:46;;;;;;;;;;;;;;;18.51;36.70;94271.00;10456974;28;1964;-53
2023/03/09 13:38:48;;;;;;;;;;;;;;;18.52;36.62;94264.69;10466299;28;2287;-51
2023/03/09 13:43:52;;;;;;;;;;;;;;;18.51;36.66;94284.09;10478146;28;2846;-53
2023/03/09 13:48:53;;;;;;;;;;;;;;;18.53;36.61;94281.19;10472856;28;2264;-53
2023/03/09 13:53:54;;;;;;;;;;;;;;;18.53;36.63;94281.19;10467569;28;2266;-52
2023/03/09 13:58:54;;;;;;;;;;;;;;;18.52;36.57;94283.06;10465871;28;2291;-52
2023/03/09 14:03:55;;;;;;;;;;;;;;;18.48;36.66;94287.34;10460510;28;2245;-53
2023/03/09 14:09:00;;;;;;;;;;;;;;;18.50;36.49;94294.91;10465242;28;2404;-54
2023/03/09 14:14:04;;;;;;;;;;;;;;;18.47;36.52;94303.34;10462144;28;2299;-53
2023/03/09 14:19:04;;;;;;;;;;;;;;;18.46;36.57;94299.19;10466444;28;2254;-50
2023/03/09 14:24:16;;;;;;;;;;;;;;;18.43;36.52;94299.72;10468751;28;2275;-51
2023/03/09 14:29:19;;;;;;;;;;;;;;;18.40;36.38;94298.47;10462106;28;2363;-52
2023/03/09 14:34:19;;;;;;;;;;;;;;;18.40;36.56;94287.22;10465942;28;2041;-52
2023/03/09 14:39:26;;;;;;;;;;;;;;;18.42;36.57;94282.47;10466171;28;2311;-55
2023/03/09 14:44:30;;;;;;;;;;;;;;;18.45;36.77;94284.50;10468977;28;2349;-55
2023/03/09 14:49:30;;;;;;;;;;;;;;;18.52;36.85;94280.44;10472886;28;2652;-54
2023/03/09 14:54:40;;;;;;;;;;;;;;;18.60;36.83;94269.22;10457553;28;2374;-54
2023/03/09 14:59:41;;;;;;;;;;;;;;;18.72;36.80;94262.66;10476262;28;2314;-51
2023/03/09 15:04:41;;;;;;;;;;;;;;;18.80;36.65;94260.09;10465796;28;2038;-52
2023/03/09 15:09:44;;;;;;;;;;;;;;;18.89;36.45;94263.59;10467954;28;2398;-52
2023/03/09 15:14:45;;;;;;;;;;;;;;;18.97;36.42;94273.38;10464889;28;2079;-51
2023/03/09 15:19:45;;;;;;;;;;;;;;;19.06;36.33;94268.19;10466533;28;2252;-52
2023/03/09 15:24:46;;;;;;;;;;;;;;;19.10;36.27;94258.63;10465638;28;2364;-53
2023/03/09 15:29:47;;;;;;;;;;;;;;;19.17;36.28;94259.75;10473106;28;2331;-54
2023/03/09 15:34:48;;;;;;;;;;;;;;;19.21;36.09;94255.44;10465052;28;2294;-53
2023/03/09 15:39:49;;;;;;;;;;;;;;;19.26;36.10;94254.56;10475040;28;1975;-53
2023/03/09 15:44:50;;;;;;;;;;;;;;;19.30;35.98;94253.66;10479375;28;1982;-52
2023/03/09 15:49:50;;;;;;;;;;;;;;;19.34;35.94;94253.84;10463564;28;2026;-55
2023/03/09 15:54:50;;;;;;;;;;;;;;;19.38;35.85;94241.66;10467977;28;2399;-54
2023/03/09 15:59:52;;;;;;;;;;;;;;;19.42;35.73;94245.25;10469425;28;2386;-53
2023/03/09 16:04:53;;;;;;;;;;;;;;;19.42;35.67;94243.38;10450548;28;2392;-54
2023/03/09 16:10:03;;;;;;;;;;;;;;;19.43;35.71;94252.81;10472998;28;2287;-53
2023/03/09 16:15:04;;;;;;;;;;;;;;;19.44;35.78;94259.63;10474762;28;2593;-55
2023/03/09 16:20:10;;;;;;;;;;;;;;;19.47;35.68;94264.25;10470499;28;2282;-52
2023/03/09 16:25:12;;;;;;;;;;;;;;;19.50;35.75;94273.41;10474065;28;2317;-52
2023/03/09 16:30:14;;;;;;;;;;;;;;;19.52;35.60;94263.38;10480267;28;1911;-54
2023/03/09 16:35:22;;;;;;;;;;;;;;;19.57;35.43;94270.34;10471850;28;2268;-53
2023/03/09 16:40:23;;;;;;;;;;;;;;;19.56;35.65;94271.44;10478686;28;2262;-52
2023/03/09 16:45:23;;;;;;;;;;;;;;;19.60;35.59;94272.41;10479697;28;1935;-50
2023/03/09 16:50:24;;;;;;;;;;;;;;;19.62;35.51;94275.50;10481777;28;2320;-53
2023/03/09 16:55:26;;;;;;;;;;;;;;;19.63;35.33;94279.66;10487413;28;2256;-53
2023/03/09 17:00:27;;;;;;;;;;;;;;;19.64;35.28;94284.59;10452556;28;2090;-53
2023/03/09 17:05:28;;;;;;;;;;;;;;;19.66;35.16;94271.19;10478828;28;1957;-54
2023/03/09 17:10:29;;;;;;;;;;;;;;;19.66;35.24;94281.69;10484501;28;2452;-51
2023/03/09 17:15:29;;;;;;;;;;;;;;;19.68;35.11;94269.03;10468442;28;2265;-55
2023/03/09 17:20:30;;;;;;;;;;;;;;;19.67;35.11;94267.47;10472148;28;2711;-53
2023/03/09 17:25:31;;;;;;;;;;;;;;;19.68;34.97;94269.03;10471444;28;2326;-54
2023/03/09 17:30:31;;;;;;;;;;;;;;;19.70;35.06;94266.88;10472069;28;2314;-53
2023/03/09 17:35:32;;;;;;;;;;;;;;;19.76;35.05;94255.13;10473936;28;2280;-55
2023/03/09 17:40:32;;;;;;;;;;;;;;;19.77;35.18;94252.19;10476927;28;2446;-53
2023/03/09 17:45:33;;;;;;;;;;;;;;;19.86;35.25;94255.66;10470243;28;2402;-53
2023/03/09 17:50:34;;;;;;;;;;;;;;;19.93;35.26;94263.84;10468649;28;2326;-54
2023/03/09 17:55:37;;;;;;;;;;;;;;;20.00;35.30;94263.41;10475019;28;2384;-59
2023/03/09 18:00:37;;;;;;;;;;;;;;;20.02;35.23;94263.88;10481789;28;1960;-59
2023/03/09 18:05:38;;;;;;;;;;;;;;;20.07;35.38;94264.50;10486225;28;2271;-49
2023/03/09 18:10:42;;;;;;;;;;;;;;;20.09;35.49;94254.44;10482427;28;2309;-51
2023/03/09 18:15:43;;;;;;;;;;;;;;;20.12;35.30;94256.50;10478883;28;2122;-50
2023/03/09 18:20:44;;;;;;;;;;;;;;;20.17;35.37;94252.94;10480997;28;2344;-47
2023/03/09 18:25:45;;;;;;;;;;;;;;;20.20;35.58;94245.25;10480300;28;2418;-53
2023/03/09 18:30:45;;;;;;;;;;;;;;;20.24;35.27;94240.13;10461365;28;2269;-52
2023/03/09 18:35:46;;;;;;;;;;;;;;;20.26;34.81;94227.44;10471512;28;2339;-55
2023/03/09 18:40:56;;;;;;;;;;;;;;;20.26;34.74;94222.19;10472814;28;2323;-56
2023/03/09 18:45:57;;;;;;;;;;;;;;;20.28;34.70;94214.75;10473770;28;2261;-55
2023/03/09 18:50:58;;;;;;;;;;;;;;;20.30;34.49;94207.31;10468860;28;2322;-56
2023/03/09 18:56:02;;;;;;;;;;;;;;;20.49;34.60;94205.19;10471230;28;2267;-58
2023/03/09 19:01:07;;;;;;;;;;;;;;;20.62;35.14;94209.53;10481408;28;2287;-55
2023/03/09 19:06:08;;;;;;;;;;;;;;;20.68;35.26;94203.00;10493079;28;2538;-58
2023/03/09 19:11:11;;;;;;;;;;;;;;;20.79;35.24;94204.22;10461759;28;1723;-57
2023/03/09 19:16:21;;;;;;;;;;;;;;;20.85;35.64;94208.28;10476028;28;2283;-58
2023/03/09 19:21:22;;;;;;;;;;;;;;;20.97;35.39;94208.41;10477661;28;1822;-57
2023/03/09 19:26:22;;;;;;;;;;;;;;;21.02;35.06;94204.84;10484030;28;2276;-56
2023/03/09 19:31:27;;;;;;;;;;;;;;;21.06;35.65;94206.53;10477533;28;2275;-58
2023/03/09 19:36:29;;;;;;;;;;;;;;;21.12;35.47;94201.13;10483810;28;1909;-58
2023/03/09 19:41:31;;;;;;;;;;;;;;;21.16;35.23;94202.03;10477007;28;2297;-57
2023/03/09 19:46:31;;;;;;;;;;;;;;;21.20;35.22;94187.94;10481537;28;2370;-58
2023/03/09 19:51:34;;;;;;;;;;;;;;;21.21;35.07;94181.56;10465421;28;1740;-58
2023/03/09 19:56:35;;;;;;;;;;;;;;;21.23;35.27;94174.13;10462968;28;1906;-58
2023/03/09 20:01:36;;;;;;;;;;;;;;;21.24;35.20;94173.03;10478881;28;1766;-56
2023/03/09 20:06:37;;;;;;;;;;;;;;;21.26;35.18;94165.59;10479161;28;2322;-58
2023/03/09 20:11:38;;;;;;;;;;;;;;;21.30;35.02;94155.19;10475704;28;2473;-56
2023/03/09 20:16:39;;;;;;;;;;;;;;;21.31;34.57;94154.88;10479272;28;2324;-56
2023/03/09 20:21:39;;;;;;;;;;;;;;;21.30;34.44;94155.97;10481810;28;2381;-56
2023/03/09 20:26:42;;;;;;;;;;;;;;;21.33;34.91;94154.56;10470621;28;1755;-56
2023/03/09 20:31:44;;;;;;;;;;;;;;;21.29;34.70;94157.03;10478335;28;2443;-55
2023/03/09 20:36:44;;;;;;;;;;;;;;;21.32;34.61;94147.72;10483723;28;2317;-55
2023/03/09 20:41:45;;;;;;;;;;;;;;;21.33;34.54;94138.75;10473136;28;2339;-56
2023/03/09 20:46:45;;;;;;;;;;;;;;;21.35;34.22;94131.31;10474848;28;2412;-54
2023/03/09 20:51:47;;;;;;;;;;;;;;;21.31;34.37;94130.38;10484147;28;2351;-54
2023/03/09 20:56:47;;;;;;;;;;;;;;;21.34;34.37;94135.00;10465689;28;2287;-54
2023/03/09 21:01:48;;;;;;;;;;;;;;;21.31;34.45;94130.38;10477062;28;2346;-55
2023/03/09 21:06:49;;;;;;;;;;;;;;;21.34;34.22;94124.47;10476703;28;1739;-55
2023/03/09 21:11:49;;;;;;;;;;;;;;;21.34;33.58;94119.19;10477556;28;2380;-55
2023/03/09 21:16:49;;;;;;;;;;;;;;;21.33;33.59;94109.75;10483131;28;1902;-55
2023/03/09 21:21:52;;;;;;;;;;;;;;;21.35;33.72;94121.50;10479653;28;2304;-57
2023/03/09 21:26:55;;;;;;;;;;;;;;;21.35;34.13;94104.94;10477311;28;2319;-55
2023/03/09 21:31:56;;;;;;;;;;;;;;;21.35;33.75;94104.94;10476089;28;2284;-55
2023/03/09 21:36:58;;;;;;;;;;;;;;;21.37;33.95;94094.84;10486732;28;2323;-55
2023/03/09 21:41:58;;;;;;;;;;;;;;;21.36;33.86;94091.44;10477377;28;2412;-56
2023/03/09 21:46:59;;;;;;;;;;;;;;;21.34;33.70;94083.09;10482829;28;2326;-57
2023/03/09 21:52:03;;;;;;;;;;;;;;;21.38;33.67;94077.94;10469839;28;2316;-57
2023/03/09 21:57:04;;;;;;;;;;;;;;;21.37;33.56;94071.13;10476675;28;2303;-56
2023/03/09 22:02:06;;;;;;;;;;;;;;;21.33;33.53;94070.22;10475458;28;2264;-57
2023/03/09 22:07:07;;;;;;;;;;;;;;;21.35;33.47;94068.03;10465932;28;2268;-56
2023/03/09 22:12:07;;;;;;;;;;;;;;;21.34;33.57;94063.84;10463932;28;2339;-57
2023/03/09 22:17:08;;;;;;;;;;;;;;;21.26;33.92;94054.13;10469702;28;1984;-57
2023/03/09 22:22:08;;;;;;;;;;;;;;;21.15;34.02;94058.97;10477382;28;2330;-55
2023/03/09 22:27:08;;;;;;;;;;;;;;;21.06;33.76;94061.66;10458424;28;2337;-57
2023/03/09 22:32:09;;;;;;;;;;;;;;;20.99;34.19;94042.91;10472319;28;2346;-59
2023/03/09 22:37:09;;;;;;;;;;;;;;;20.88;34.30;94035.66;10485101;28;2353;-58
2023/03/09 22:42:10;;;;;;;;;;;;;;;20.78;34.56;94028.91;10479975;28;2468;-59
2023/03/09 22:47:11;;;;;;;;;;;;;;;20.72;34.44;94022.25;10482587;28;1977;-57
2023/03/09 22:52:12;;;;;;;;;;;;;;;20.66;34.93;94015.63;10462481;28;2264;-58
2023/03/09 22:57:13;;;;;;;;;;;;;;;20.60;34.91;94006.34;10479783;28;2326;-57
2023/03/09 23:02:14;;;;;;;;;;;;;;;20.54;34.76;94002.34;10478977;28;2460;-57
2023/03/09 23:07:14;;;;;;;;;;;;;;;20.50;35.19;94003.28;10471837;28;2271;-54
2023/03/09 23:12:14;;;;;;;;;;;;;;;20.46;34.86;93991.84;10497769;28;2347;-55
2023/03/09 23:17:15;;;;;;;;;;;;;;;20.41;34.83;93986.72;10480723;28;2364;-56
2023/03/09 23:22:16;;;;;;;;;;;;;;;20.37;35.07;93976.06;10477502;28;2349;-57
2023/03/09 23:27:17;;;;;;;;;;;;;;;20.33;35.12;93974.38;10453529;28;2319;-57
2023/03/09 23:32:17;;;;;;;;;;;;;;;20.30;35.32;93967.88;10454943;28;2338;-57
2023/03/09 23:37:18;;;;;;;;;;;;;;;20.27;35.06;93956.13;10481057;28;2333;-57
2023/03/09 23:42:19;;;;;;;;;;;;;;;20.25;35.12;93954.91;10467527;28;2343;-56
2023/03/09 23:47:20;;;;;;;;;;;;;;;20.23;35.02;93957.06;10466123;28;2317;-56
2023/03/09 23:52:21;;;;;;;;;;;;;;;20.19;35.21;93950.88;10471372;28;2334;-56
2023/03/09 23:57:22;;;;;;;;;;;;;;;20.17;35.29;93939.88;10454303;28;2291;-57
